createdAt,value
2019-04-26T00:01:46.369Z,15.00
2019-04-26T00:04:16.209Z,15.00
2019-04-26T00:06:48.499Z,15.00
2019-04-26T00:09:19.176Z,15.00
2019-04-26T00:11:50.681Z,15.00
2019-04-26T00:14:21.165Z,15.00
2019-04-26T00:16:51.667Z,15.00
2019-04-26T00:19:20.578Z,14.90
2019-04-26T00:21:49.645Z,14.90
2019-04-26T00:24:19.900Z,14.90
2019-04-26T00:26:50.969Z,14.90
2019-04-26T00:29:21.203Z,14.90
2019-04-26T00:31:50.232Z,14.90
2019-04-26T00:34:19.588Z,15.00
2019-04-26T00:36:48.513Z,14.90
2019-04-26T00:39:18.193Z,14.90
2019-04-26T00:41:48.481Z,14.90
2019-04-26T00:44:18.693Z,14.90
2019-04-26T00:46:50.647Z,14.90
2019-04-26T00:49:21.910Z,14.90
2019-04-26T00:51:51.618Z,14.90
2019-04-26T00:54:22.228Z,14.90
2019-04-26T00:56:51.351Z,14.90
2019-04-26T00:59:22.508Z,14.90
2019-04-26T01:01:53.225Z,14.80
2019-04-26T01:04:23.102Z,14.80
2019-04-26T01:06:53.678Z,14.80
2019-04-26T01:09:23.685Z,14.80
2019-04-26T01:11:52.537Z,14.80
2019-04-26T01:14:22.100Z,14.80
2019-04-26T01:16:53.500Z,14.80
2019-04-26T01:19:24.580Z,14.80
2019-04-26T01:21:56.614Z,14.80
2019-04-26T01:24:27.354Z,14.80
2019-04-26T01:26:59.146Z,14.70
2019-04-26T01:29:31.692Z,14.70
2019-04-26T01:32:06.721Z,14.70
2019-04-26T01:34:36.719Z,14.70
2019-04-26T01:37:05.827Z,14.60
2019-04-26T01:39:37.057Z,14.60
2019-04-26T01:42:16.495Z,14.50
2019-04-26T01:44:52.404Z,14.50
2019-04-26T01:47:22.241Z,14.50
2019-04-26T01:49:53.691Z,14.50
2019-04-26T01:52:24.076Z,14.40
2019-04-26T01:54:54.195Z,14.30
2019-04-26T01:57:25.378Z,14.20
2019-04-26T01:59:58.627Z,14.10
2019-04-26T02:02:47.850Z,14.00
2019-04-26T02:05:22.424Z,13.90
2019-04-26T02:07:51.818Z,13.70
2019-04-26T02:10:24.043Z,13.70
2019-04-26T02:12:55.396Z,13.60
2019-04-26T02:15:27.296Z,13.50
2019-04-26T02:17:58.930Z,13.40
2019-04-26T02:21:08.289Z,13.30
2019-04-26T02:23:38.945Z,13.10
2019-04-26T02:26:26.651Z,13.10
2019-04-26T02:28:55.585Z,13.00
2019-04-26T02:31:26.640Z,13.00
2019-04-26T02:33:55.619Z,13.00
2019-04-26T02:36:27.506Z,13.00
2019-04-26T02:38:57.258Z,13.10
2019-04-26T02:41:29.935Z,13.10
2019-04-26T02:44:03.538Z,13.20
2019-04-26T02:46:55.046Z,13.10
2019-04-26T02:49:37.127Z,13.10
2019-04-26T02:52:13.334Z,13.10
2019-04-26T02:54:45.341Z,13.10
2019-04-26T02:57:17.051Z,13.00
2019-04-26T02:59:48.402Z,12.90
2019-04-26T03:02:22.011Z,12.90
2019-04-26T03:04:58.450Z,12.90
2019-04-26T03:07:43.109Z,12.80
2019-04-26T03:10:13.444Z,12.90
2019-04-26T03:12:44.931Z,12.80
2019-04-26T03:15:19.070Z,12.80
2019-04-26T03:17:52.791Z,12.80
2019-04-26T03:20:29.099Z,12.80
2019-04-26T03:23:06.905Z,12.80
2019-04-26T03:25:50.943Z,12.80
2019-04-26T03:28:42.057Z,12.80
2019-04-26T03:31:33.986Z,12.90
2019-04-26T03:34:06.158Z,13.00
2019-04-26T03:36:57.138Z,13.10
2019-04-26T03:39:57.090Z,13.20
2019-04-26T03:43:01.482Z,13.30
2019-04-26T03:45:55.762Z,13.30
2019-04-26T03:49:00.382Z,13.40
2019-04-26T03:51:48.463Z,13.60
2019-04-26T03:54:25.953Z,13.80
2019-04-26T03:57:15.429Z,13.90
2019-04-26T03:59:51.552Z,14.00
2019-04-26T04:02:24.968Z,14.20
2019-04-26T04:05:00.564Z,14.40
2019-04-26T04:07:39.173Z,14.50
2019-04-26T04:10:06.682Z,14.70
2019-04-26T04:12:51.872Z,14.80
2019-04-26T04:15:27.577Z,14.90
2019-04-26T04:18:01.423Z,15.10
2019-04-26T04:20:40.880Z,15.20
2019-04-26T04:23:18.886Z,15.30
2019-04-26T04:25:52.086Z,15.30
2019-04-26T04:28:49.926Z,15.40
2019-04-26T04:31:28.035Z,15.40
2019-04-26T04:34:14.817Z,15.40
2019-04-26T04:36:50.949Z,15.50
2019-04-26T04:39:24.468Z,15.60
2019-04-26T04:42:18.546Z,15.80
2019-04-26T04:45:13.070Z,16.00
2019-04-26T04:48:16.396Z,16.30
2019-04-26T04:51:20.061Z,16.30
2019-04-26T04:53:54.902Z,16.30
2019-04-26T04:56:46.219Z,16.30
2019-04-26T04:59:20.568Z,16.30
2019-04-26T05:02:19.174Z,16.20
2019-04-26T05:05:08.187Z,16.20
2019-04-26T05:07:40.074Z,16.10
2019-04-26T05:10:18.162Z,15.90
2019-04-26T05:13:02.912Z,15.70
2019-04-26T05:15:45.131Z,15.60
2019-04-26T05:18:26.003Z,15.60
2019-04-26T05:21:09.764Z,15.50
2019-04-26T05:23:57.764Z,15.50
2019-04-26T05:26:56.239Z,15.60
2019-04-26T05:29:48.598Z,15.80
2019-04-26T05:32:27.591Z,16.00
2019-04-26T05:35:24.485Z,16.10
2019-04-26T05:38:17.945Z,16.20
2019-04-26T05:41:00.225Z,16.30
2019-04-26T05:43:33.827Z,16.50
2019-04-26T05:46:31.035Z,16.80
2019-04-26T05:49:31.258Z,17.30
2019-04-26T05:52:39.659Z,18.10
2019-04-26T05:55:51.129Z,18.90
2019-04-26T05:58:38.743Z,19.40
2019-04-26T06:01:52.096Z,19.70
2019-04-26T06:04:43.779Z,19.80
2019-04-26T06:07:28.381Z,19.70
2019-04-26T06:10:16.564Z,19.70
2019-04-26T06:13:08.569Z,19.60
2019-04-26T06:16:04.232Z,19.40
2019-04-26T06:19:05.757Z,19.30
2019-04-26T06:21:40.484Z,19.20
2019-04-26T06:24:28.862Z,19.00
2019-04-26T06:27:16.988Z,18.90
2019-04-26T06:29:58.815Z,18.80
2019-04-26T06:32:36.892Z,18.80
2019-04-26T06:35:20.293Z,18.80
2019-04-26T06:37:59.819Z,18.80
2019-04-26T06:41:03.071Z,19.00
2019-04-26T06:43:36.299Z,19.00
2019-04-26T06:46:09.740Z,19.20
2019-04-26T06:49:05.479Z,19.30
2019-04-26T06:51:40.157Z,19.40
2019-04-26T06:54:15.993Z,19.50
2019-04-26T06:56:55.882Z,19.50
2019-04-26T06:59:43.135Z,19.60
2019-04-26T07:02:20.748Z,19.70
2019-04-26T07:05:01.339Z,19.80
2019-04-26T07:07:49.291Z,19.80
2019-04-26T07:10:33.012Z,19.90
2019-04-26T07:13:48.132Z,20.00
2019-04-26T07:16:37.998Z,20.10
2019-04-26T07:19:18.575Z,20.20
2019-04-26T07:22:35.306Z,20.40
2019-04-26T07:25:38.131Z,20.40
2019-04-26T07:28:19.779Z,20.60
2019-04-26T07:31:06.867Z,20.70
2019-04-26T07:34:00.798Z,20.70
2019-04-26T07:36:51.136Z,20.90
2019-04-26T07:39:51.107Z,21.00
2019-04-26T07:42:58.570Z,21.00
2019-04-26T07:45:38.613Z,21.10
2019-04-26T07:48:22.298Z,21.10
2019-04-26T07:51:27.901Z,21.10
2019-04-26T07:54:23.399Z,21.20
2019-04-26T07:57:42.569Z,21.30
2019-04-26T08:00:27.758Z,21.40
2019-04-26T08:03:13.064Z,21.40
2019-04-26T08:05:59.777Z,21.60
2019-04-26T08:08:31.554Z,21.70
2019-04-26T08:11:15.190Z,21.80
2019-04-26T08:13:52.940Z,21.80
2019-04-26T08:16:27.502Z,21.90
2019-04-26T08:19:01.150Z,21.90
2019-04-26T08:21:33.777Z,22.00
2019-04-26T08:24:24.303Z,22.00
2019-04-26T08:27:08.794Z,22.20
2019-04-26T08:29:35.413Z,22.30
2019-04-26T08:32:08.864Z,22.40
2019-04-26T08:34:41.489Z,22.40
2019-04-26T08:37:19.332Z,22.50
2019-04-26T08:39:51.865Z,22.70
2019-04-26T08:42:24.733Z,22.80
2019-04-26T08:45:08.891Z,22.90
2019-04-26T08:47:53.405Z,22.90
2019-04-26T08:50:31.317Z,23.00
2019-04-26T08:53:03.496Z,23.00
2019-04-26T08:55:38.675Z,23.10
2019-04-26T08:58:10.484Z,23.10
2019-04-26T09:00:58.936Z,23.10
2019-04-26T09:03:37.678Z,23.20
2019-04-26T09:06:21.416Z,23.30
2019-04-26T09:08:53.410Z,23.30
2019-04-26T09:11:30.179Z,23.40
2019-04-26T09:13:57.974Z,23.50
2019-04-26T09:16:26.924Z,23.50
2019-04-26T09:18:59.421Z,23.50
2019-04-26T09:21:29.089Z,23.60
2019-04-26T09:24:15.397Z,23.60
2019-04-26T09:26:46.728Z,23.60
2019-04-26T09:29:30.461Z,23.70
2019-04-26T09:31:59.197Z,23.80
2019-04-26T09:34:32.673Z,23.90
2019-04-26T09:37:01.674Z,23.90
2019-04-26T09:39:31.106Z,23.90
2019-04-26T09:42:19.473Z,23.80
2019-04-26T09:44:58.787Z,24.00
2019-04-26T09:47:30.087Z,24.00
2019-04-26T09:50:19.789Z,24.10
2019-04-26T09:52:50.439Z,24.20
2019-04-26T09:55:18.496Z,24.20
2019-04-26T09:57:49.391Z,24.30
2019-04-26T10:00:20.377Z,24.40
2019-04-26T10:02:49.384Z,24.40
2019-04-26T10:05:22.360Z,24.50
2019-04-26T10:07:50.789Z,24.60
2019-04-26T10:10:23.167Z,24.70
2019-04-26T10:12:58.890Z,24.70
2019-04-26T10:15:29.534Z,24.80
2019-04-26T10:17:57.956Z,24.90
2019-04-26T10:20:26.821Z,24.90
2019-04-26T10:22:55.746Z,25.00
2019-04-26T10:25:24.751Z,25.10
2019-04-26T10:27:53.765Z,25.20
2019-04-26T10:30:22.896Z,25.10
2019-04-26T10:32:51.734Z,25.10
2019-04-26T10:35:21.702Z,25.10
2019-04-26T10:37:52.697Z,25.10
2019-04-26T10:40:21.801Z,25.10
2019-04-26T10:42:50.802Z,25.10
2019-04-26T10:45:20.757Z,24.80
2019-04-26T10:47:49.814Z,24.60
2019-04-26T10:50:18.798Z,24.50
2019-04-26T10:53:07.525Z,24.60
2019-04-26T10:55:46.369Z,24.80
2019-04-26T10:58:18.966Z,25.00
2019-04-26T11:01:06.163Z,25.10
2019-04-26T11:03:36.269Z,25.30
2019-04-26T11:06:05.127Z,25.60
2019-04-26T11:08:33.912Z,25.90
2019-04-26T11:11:02.853Z,25.90
2019-04-26T11:13:31.915Z,26.00
2019-04-26T11:16:02.366Z,26.10
2019-04-26T11:18:31.472Z,26.20
2019-04-26T11:21:00.426Z,26.10
2019-04-26T11:23:29.342Z,26.00
2019-04-26T11:26:01.737Z,26.00
2019-04-26T11:28:28.853Z,26.00
2019-04-26T11:30:57.879Z,26.10
2019-04-26T11:33:26.845Z,26.10
2019-04-26T11:35:55.949Z,26.20
2019-04-26T11:38:26.837Z,26.40
2019-04-26T11:41:05.894Z,26.40
2019-04-26T11:43:25.906Z,26.30
2019-04-26T11:46:04.091Z,26.10
2019-04-26T11:48:28.909Z,26.10
2019-04-26T11:50:55.081Z,26.10
2019-04-26T11:53:24.010Z,26.00
2019-04-26T11:55:53.033Z,26.10
2019-04-26T11:58:22.416Z,26.10
2019-04-26T12:00:57.186Z,26.10
2019-04-26T12:03:26.140Z,26.10
2019-04-26T12:05:56.779Z,26.20
2019-04-26T12:08:52.215Z,26.20
2019-04-26T12:11:31.486Z,26.20
2019-04-26T12:13:50.702Z,26.30
2019-04-26T12:16:20.389Z,26.40
2019-04-26T12:18:48.687Z,26.40
2019-04-26T12:21:16.774Z,26.50
2019-04-26T12:23:44.885Z,26.60
2019-04-26T12:26:12.919Z,26.60
2019-04-26T12:28:41.373Z,26.40
2019-04-26T12:31:09.368Z,26.40
2019-04-26T12:33:39.094Z,26.30
2019-04-26T12:36:09.621Z,26.20
2019-04-26T12:38:37.307Z,26.20
2019-04-26T12:41:05.342Z,26.20
2019-04-26T12:43:33.466Z,26.10
2019-04-26T12:46:03.142Z,26.00
2019-04-26T12:48:31.107Z,25.90
2019-04-26T12:50:59.738Z,25.70
2019-04-26T12:53:31.479Z,25.60
2019-04-26T12:55:58.414Z,25.40
2019-04-26T12:58:26.850Z,25.20
2019-04-26T13:00:54.841Z,25.00
2019-04-26T13:03:24.893Z,24.80
2019-04-26T13:05:57.839Z,24.70
2019-04-26T13:08:22.863Z,24.70
2019-04-26T13:10:58.258Z,24.60
2019-04-26T13:13:45.754Z,24.60
2019-04-26T13:16:26.300Z,24.60
2019-04-26T13:18:53.453Z,24.60
2019-04-26T13:21:21.403Z,24.50
2019-04-26T13:23:49.795Z,24.40
2019-04-26T13:26:18.046Z,24.20
2019-04-26T13:28:46.036Z,24.00
2019-04-26T13:31:14.088Z,23.80
2019-04-26T13:33:42.245Z,23.60
2019-04-26T13:36:10.248Z,23.50
2019-04-26T13:38:39.376Z,23.30
2019-04-26T13:41:07.905Z,23.30
2019-04-26T13:43:36.085Z,23.30
2019-04-26T13:46:05.818Z,23.30
2019-04-26T13:48:39.170Z,23.30
2019-04-26T13:51:23.183Z,23.40
2019-04-26T13:53:54.208Z,23.40
2019-04-26T13:56:21.248Z,23.50
2019-04-26T13:58:49.308Z,23.60
2019-04-26T14:01:18.697Z,23.50
2019-04-26T14:03:47.019Z,23.50
2019-04-26T14:06:15.121Z,23.50
2019-04-26T14:08:43.229Z,23.50
2019-04-26T14:11:11.203Z,23.40
2019-04-26T14:13:39.285Z,23.40
2019-04-26T14:16:08.421Z,23.30
2019-04-26T14:18:39.166Z,23.30
2019-04-26T14:21:06.254Z,23.30
2019-04-26T14:23:45.366Z,23.20
2019-04-26T14:26:29.382Z,23.30
2019-04-26T14:28:59.775Z,23.20
2019-04-26T14:31:28.214Z,23.20
2019-04-26T14:34:05.370Z,23.20
2019-04-26T14:36:34.670Z,23.10
2019-04-26T14:39:06.010Z,23.10
2019-04-26T14:41:32.378Z,23.00
2019-04-26T14:44:14.486Z,23.00
2019-04-26T14:46:31.324Z,23.10
2019-04-26T14:49:02.137Z,23.10
2019-04-26T14:51:28.965Z,23.10
2019-04-26T14:53:59.139Z,23.10
2019-04-26T14:56:29.452Z,23.10
2019-04-26T14:59:01.755Z,23.10
2019-04-26T15:01:35.322Z,23.10
2019-04-26T15:04:23.132Z,23.00
2019-04-26T15:06:57.978Z,23.00
2019-04-26T15:09:29.797Z,23.00
2019-04-26T15:11:57.396Z,22.90
2019-04-26T15:14:22.847Z,22.90
2019-04-26T15:16:51.111Z,22.90
2019-04-26T15:19:19.096Z,22.90
2019-04-26T15:21:47.187Z,22.90
2019-04-26T15:24:15.250Z,22.90
2019-04-26T15:26:43.402Z,22.80
2019-04-26T15:29:12.692Z,22.80
2019-04-26T15:31:40.770Z,22.80
2019-04-26T15:34:08.893Z,22.70
2019-04-26T15:36:36.872Z,22.70
2019-04-26T15:39:08.153Z,22.60
2019-04-26T15:41:51.407Z,22.50
2019-04-26T15:44:24.866Z,22.50
2019-04-26T15:46:53.762Z,22.40
2019-04-26T15:49:26.114Z,22.30
2019-04-26T15:51:56.359Z,22.30
2019-04-26T15:54:23.760Z,22.30
2019-04-26T15:56:53.759Z,22.20
2019-04-26T15:59:22.720Z,22.20
2019-04-26T16:01:56.228Z,22.20
2019-04-26T16:04:24.363Z,22.30
2019-04-26T16:06:52.434Z,22.30
2019-04-26T16:09:23.002Z,22.40
2019-04-26T16:11:53.101Z,22.40
2019-04-26T16:14:24.877Z,22.50
2019-04-26T16:16:52.498Z,22.60
2019-04-26T16:19:20.753Z,22.60
2019-04-26T16:21:54.249Z,22.50
2019-04-26T16:24:24.102Z,22.50
2019-04-26T16:26:56.002Z,22.40
2019-04-26T16:29:39.853Z,22.30
2019-04-26T16:32:09.505Z,22.20
2019-04-26T16:34:41.777Z,22.10
2019-04-26T16:37:15.022Z,22.00
2019-04-26T16:39:46.069Z,21.90
2019-04-26T16:42:13.908Z,21.70
2019-04-26T16:44:44.816Z,21.60
2019-04-26T16:47:10.441Z,21.50
2019-04-26T16:49:41.923Z,21.40
2019-04-26T16:52:08.201Z,21.20
2019-04-26T16:54:36.184Z,21.10
2019-04-26T16:59:34.508Z,20.90
2019-04-26T17:00:45.671Z,21.10
2019-04-26T17:02:02.771Z,20.80
2019-04-26T17:04:35.152Z,20.70
2019-04-26T17:07:04.925Z,20.50
2019-04-26T17:09:54.438Z,20.40
2019-04-26T17:12:02.520Z,20.30
2019-04-26T17:14:33.955Z,20.20
2019-04-26T17:17:00.226Z,20.00
2019-04-26T17:19:29.736Z,19.90
2019-04-26T17:22:14.112Z,19.80
2019-04-26T17:24:46.430Z,19.70
2019-04-26T17:27:16.303Z,19.60
2019-04-26T17:29:44.574Z,19.50
2019-04-26T17:32:13.945Z,19.40
2019-04-26T17:34:43.361Z,19.40
2019-04-26T17:37:16.883Z,19.30
2019-04-26T17:39:41.732Z,19.30
2019-04-26T17:42:10.502Z,19.20
2019-04-26T17:44:41.255Z,19.10
2019-04-26T17:47:10.649Z,19.00
2019-04-26T17:49:41.807Z,18.90
2019-04-26T17:52:08.510Z,18.80
2019-04-26T17:54:46.068Z,18.80
2019-04-26T17:57:12.276Z,18.70
2019-04-26T17:59:45.291Z,18.60
2019-04-26T18:02:19.635Z,18.60
2019-04-26T18:04:40.493Z,18.60
2019-04-26T18:07:33.847Z,18.50
2019-04-26T18:09:45.798Z,18.50
2019-04-26T18:12:06.310Z,18.40
2019-04-26T18:14:34.374Z,18.40
2019-04-26T18:17:07.126Z,18.30
2019-04-26T18:19:53.214Z,18.20
2019-04-26T18:22:28.472Z,18.10
2019-04-26T18:24:55.653Z,18.10
2019-04-26T18:27:23.999Z,18.10
2019-04-26T18:29:53.238Z,18.10
2019-04-26T18:32:21.847Z,18.10
2019-04-26T18:34:49.959Z,18.00
2019-04-26T18:37:18.034Z,18.00
2019-04-26T18:39:46.100Z,17.90
2019-04-26T18:42:14.250Z,17.90
2019-04-26T18:44:47.335Z,17.80
2019-04-26T18:47:20.511Z,17.70
2019-04-26T18:49:46.373Z,17.70
2019-04-26T18:52:15.581Z,17.70
2019-04-26T18:54:47.921Z,17.60
2019-04-26T18:57:17.122Z,17.60
2019-04-26T18:59:50.924Z,17.50
2019-04-26T19:02:18.647Z,17.40
2019-04-26T19:04:48.045Z,17.40
2019-04-26T19:07:17.546Z,17.30
2019-04-26T19:09:58.740Z,17.30
2019-04-26T19:12:18.448Z,17.30
2019-04-26T19:15:07.566Z,17.20
2019-04-26T19:17:43.516Z,17.20
2019-04-26T19:20:16.298Z,17.10
2019-04-26T19:22:46.547Z,17.00
2019-04-26T19:25:21.505Z,16.90
2019-04-26T19:27:49.608Z,16.80
2019-04-26T19:30:22.511Z,16.70
2019-04-26T19:32:54.631Z,16.70
2019-04-26T19:35:22.681Z,16.60
2019-04-26T19:37:51.751Z,16.60
2019-04-26T19:40:20.097Z,16.60
2019-04-26T19:42:51.320Z,16.50
2019-04-26T19:45:19.849Z,16.40
2019-04-26T19:47:49.526Z,16.50
2019-04-26T19:50:19.165Z,16.50
2019-04-26T19:52:48.768Z,16.60
2019-04-26T19:55:31.917Z,16.60
2019-04-26T19:58:01.988Z,16.60
2019-04-26T20:00:31.996Z,16.70
2019-04-26T20:03:01.521Z,16.70
2019-04-26T20:05:29.374Z,16.60
2019-04-26T20:07:58.461Z,16.50
2019-04-26T20:10:27.002Z,16.60
2019-04-26T20:12:55.092Z,16.50
2019-04-26T20:15:26.644Z,16.40
2019-04-26T20:17:59.786Z,16.40
2019-04-26T20:20:23.808Z,16.40
2019-04-26T20:22:51.913Z,16.30
2019-04-26T20:25:20.033Z,16.30
2019-04-26T20:27:48.159Z,16.20
2019-04-26T20:30:24.466Z,16.20
2019-04-26T20:32:52.386Z,16.10
2019-04-26T20:35:26.906Z,16.00
2019-04-26T20:37:56.218Z,16.00
2019-04-26T20:40:25.547Z,16.00
2019-04-26T20:42:57.142Z,15.90
2019-04-26T20:45:22.812Z,15.90
2019-04-26T20:47:51.944Z,15.80
2019-04-26T20:50:21.740Z,15.80
2019-04-26T20:52:55.614Z,15.70
2019-04-26T20:55:23.436Z,15.70
2019-04-26T20:57:51.953Z,15.60
2019-04-26T21:00:22.411Z,15.50
2019-04-26T21:02:54.187Z,15.50
2019-04-26T21:05:21.336Z,15.40
2019-04-26T21:07:50.057Z,15.40
2019-04-26T21:10:22.139Z,15.20
2019-04-26T21:12:52.236Z,15.10
2019-04-26T21:15:20.141Z,15.00
2019-04-26T21:17:47.954Z,14.90
2019-04-26T21:20:16.090Z,14.90
2019-04-26T21:22:44.602Z,14.80
2019-04-26T21:25:14.357Z,14.80
2019-04-26T21:27:44.060Z,14.80
2019-04-26T21:30:21.551Z,14.80
2019-04-26T21:33:04.943Z,14.70
2019-04-26T21:35:34.596Z,14.70
2019-04-26T21:38:19.412Z,14.60
2019-04-26T21:41:01.438Z,14.50
2019-04-26T21:43:29.589Z,14.50
2019-04-26T21:46:07.299Z,14.40
2019-04-26T21:48:25.630Z,14.40
2019-04-26T21:50:53.809Z,14.30
2019-04-26T21:53:21.772Z,14.20
2019-04-26T21:55:49.881Z,14.20
2019-04-26T21:58:17.939Z,14.20
2019-04-26T22:00:48.926Z,14.20
2019-04-26T22:03:17.135Z,14.10
2019-04-26T22:05:49.884Z,14.10
2019-04-26T22:08:17.488Z,14.10
2019-04-26T22:10:47.100Z,14.00
2019-04-26T22:13:26.067Z,14.00
2019-04-26T22:15:58.570Z,14.00
2019-04-26T22:18:40.659Z,13.90
2019-04-26T22:21:28.815Z,13.90
2019-04-26T22:23:59.394Z,13.80
2019-04-26T22:26:27.545Z,13.80
2019-04-26T22:28:55.610Z,13.80
2019-04-26T22:31:23.802Z,13.80
2019-04-26T22:33:53.076Z,13.70
2019-04-26T22:36:23.278Z,13.70
2019-04-26T22:38:51.355Z,13.70
2019-04-26T22:41:19.352Z,13.60
2019-04-26T22:43:49.633Z,13.70
2019-04-26T22:46:31.335Z,13.60
2019-04-26T22:49:01.245Z,13.60
2019-04-26T22:51:33.587Z,13.50
2019-04-26T22:54:04.305Z,13.50
2019-04-26T22:56:32.550Z,13.50
2019-04-26T22:59:04.839Z,13.40
2019-04-26T23:01:29.191Z,13.40
2019-04-26T23:03:57.185Z,13.40
2019-04-26T23:06:25.848Z,13.30
2019-04-26T23:08:54.209Z,13.30
2019-04-26T23:11:23.150Z,13.20
2019-04-26T23:13:55.706Z,13.20
2019-04-26T23:16:40.471Z,13.10
2019-04-26T23:19:11.252Z,13.00
2019-04-26T23:21:52.830Z,13.00
2019-04-26T23:24:19.526Z,12.90
2019-04-26T23:26:47.555Z,12.80
2019-04-26T23:29:18.720Z,12.80
2019-04-26T23:31:45.382Z,12.80
2019-04-26T23:34:14.272Z,12.70
2019-04-26T23:36:43.660Z,12.70
2019-04-26T23:39:12.074Z,12.60
2019-04-26T23:41:41.556Z,12.60
2019-04-26T23:44:10.523Z,12.50
2019-04-26T23:46:38.595Z,12.50
2019-04-26T23:49:06.634Z,12.50
2019-04-26T23:51:38.148Z,12.40
2019-04-26T23:54:04.337Z,12.40
2019-04-26T23:56:34.062Z,12.40
2019-04-26T23:59:03.566Z,12.40
